sensor_id;sensor_type;location;lat;lon;timestamp;temperature;humidity
27870;DHT22;15225;50.730;4.244;2022-12-18T15:19:38;0.90;1.00
27870;DHT22;15225;50.730;4.244;2022-12-18T15:22:12;1.20;97.80
27870;DHT22;15225;50.730;4.244;2022-12-18T15:24:42;1.40;99.90
27870;DHT22;15225;50.730;4.244;2022-12-18T15:27:27;1.70;99.90
27870;DHT22;15225;50.730;4.244;2022-12-18T15:30:23;2.00;99.90
27870;DHT22;15225;50.730;4.244;2022-12-18T15:32:50;2.10;99.90
27870;DHT22;15225;50.730;4.244;2022-12-18T15:35:23;2.30;99.90
27870;DHT22;15225;50.730;4.244;2022-12-18T15:37:50;2.70;1.00
27870;DHT22;15225;50.730;4.244;2022-12-18T15:40:22;2.80;99.90
27870;DHT22;15225;50.730;4.244;2022-12-18T15:42:49;2.70;99.90
27870;DHT22;15225;50.730;4.244;2022-12-18T15:45:35;2.50;99.90
27870;DHT22;15225;50.730;4.244;2022-12-18T15:48:00;2.50;99.90
27870;DHT22;15225;50.730;4.244;2022-12-18T15:50:26;2.60;99.90
27870;DHT22;15225;50.730;4.244;2022-12-18T15:52:53;2.80;99.90
27870;DHT22;15225;50.730;4.244;2022-12-18T15:55:22;3.20;35.20
27870;DHT22;15225;50.730;4.244;2022-12-18T15:58:09;3.40;1.00
27870;DHT22;15225;50.730;4.244;2022-12-18T16:00:36;3.50;1.00
27870;DHT22;15225;50.730;4.244;2022-12-18T16:03:03;3.70;99.90
27870;DHT22;15225;50.730;4.244;2022-12-18T16:05:30;3.60;99.90
27870;DHT22;15225;50.730;4.244;2022-12-18T16:07:55;3.30;1.00
27870;DHT22;15225;50.730;4.244;2022-12-18T16:10:21;3.20;1.00
27870;DHT22;15225;50.730;4.244;2022-12-18T16:12:47;3.10;1.00
27870;DHT22;15225;50.730;4.244;2022-12-18T16:15:14;3.10;1.00
27870;DHT22;15225;50.730;4.244;2022-12-18T16:17:46;3.30;1.00
27870;DHT22;15225;50.730;4.244;2022-12-18T16:20:21;3.20;1.00
27870;DHT22;15225;50.730;4.244;2022-12-18T16:22:49;3.10;1.00
27870;DHT22;15225;50.730;4.244;2022-12-18T16:25:24;3.00;1.00
27870;DHT22;15225;50.730;4.244;2022-12-18T16:27:52;3.00;1.00
27870;DHT22;15225;50.730;4.244;2022-12-18T16:30:25;3.20;99.90
27870;DHT22;15225;50.730;4.244;2022-12-18T16:32:59;3.00;1.00
27870;DHT22;15225;50.730;4.244;2022-12-18T16:35:30;3.00;1.00
27870;DHT22;15225;50.730;4.244;2022-12-18T16:37:57;2.90;1.00
27870;DHT22;15225;50.730;4.244;2022-12-18T16:40:23;2.90;1.00
27870;DHT22;15225;50.730;4.244;2022-12-18T16:42:50;3.00;1.00
27870;DHT22;15225;50.730;4.244;2022-12-18T16:45:17;3.10;99.90
27870;DHT22;15225;50.730;4.244;2022-12-18T16:47:43;2.90;1.00
27870;DHT22;15225;50.730;4.244;2022-12-18T16:50:10;2.80;1.00
27870;DHT22;15225;50.730;4.244;2022-12-18T16:52:36;2.90;1.00
27870;DHT22;15225;50.730;4.244;2022-12-18T16:55:02;2.90;1.00
27870;DHT22;15225;50.730;4.244;2022-12-18T16:57:29;2.80;1.00
27870;DHT22;15225;50.730;4.244;2022-12-18T16:59:55;3.10;1.00
27870;DHT22;15225;50.730;4.244;2022-12-18T17:02:24;3.30;99.90
27870;DHT22;15225;50.730;4.244;2022-12-18T17:04:52;3.70;99.90
27870;DHT22;15225;50.730;4.244;2022-12-18T17:07:19;3.90;99.90
27870;DHT22;15225;50.730;4.244;2022-12-18T17:09:44;4.00;99.90
27870;DHT22;15225;50.730;4.244;2022-12-18T17:12:10;4.10;99.90
27870;DHT22;15225;50.730;4.244;2022-12-18T17:14:36;3.70;99.90
27870;DHT22;15225;50.730;4.244;2022-12-18T17:17:02;3.50;1.00
27870;DHT22;15225;50.730;4.244;2022-12-18T17:19:27;3.50;1.00
27870;DHT22;15225;50.730;4.244;2022-12-18T17:21:53;3.40;99.90
27870;DHT22;15225;50.730;4.244;2022-12-18T17:24:20;3.20;99.90
27870;DHT22;15225;50.730;4.244;2022-12-18T17:26:47;3.20;99.90
27870;DHT22;15225;50.730;4.244;2022-12-18T17:29:16;3.50;99.90
27870;DHT22;15225;50.730;4.244;2022-12-18T17:31:42;3.60;99.90
27870;DHT22;15225;50.730;4.244;2022-12-18T17:34:10;3.80;99.90
27870;DHT22;15225;50.730;4.244;2022-12-18T17:36:36;3.90;39.10
27870;DHT22;15225;50.730;4.244;2022-12-18T17:39:03;3.90;99.90
27870;DHT22;15225;50.730;4.244;2022-12-18T17:41:29;3.60;99.90
27870;DHT22;15225;50.730;4.244;2022-12-18T17:44:01;3.60;99.90
27870;DHT22;15225;50.730;4.244;2022-12-18T17:46:28;3.40;23.70
27870;DHT22;15225;50.730;4.244;2022-12-18T17:48:55;3.20;1.00
27870;DHT22;15225;50.730;4.244;2022-12-18T17:51:21;3.20;99.90
27870;DHT22;15225;50.730;4.244;2022-12-18T17:53:47;3.30;99.90
27870;DHT22;15225;50.730;4.244;2022-12-18T17:56:15;3.20;1.00
27870;DHT22;15225;50.730;4.244;2022-12-18T17:58:41;2.90;99.90
27870;DHT22;15225;50.730;4.244;2022-12-18T18:01:14;3.10;1.00
27870;DHT22;15225;50.730;4.244;2022-12-18T18:03:40;3.30;99.90
27870;DHT22;15225;50.730;4.244;2022-12-18T18:06:07;3.60;99.90
27870;DHT22;15225;50.730;4.244;2022-12-18T18:08:34;3.80;11.20
27870;DHT22;15225;50.730;4.244;2022-12-18T18:11:04;3.70;80.10
27870;DHT22;15225;50.730;4.244;2022-12-18T18:13:49;3.40;1.00
27870;DHT22;15225;50.730;4.244;2022-12-18T18:16:40;3.30;99.90
27870;DHT22;15225;50.730;4.244;2022-12-18T18:19:20;3.30;99.90
27870;DHT22;15225;50.730;4.244;2022-12-18T18:21:48;3.30;99.90
27870;DHT22;15225;50.730;4.244;2022-12-18T18:24:16;3.20;99.90
27870;DHT22;15225;50.730;4.244;2022-12-18T18:26:43;3.40;56.30
27870;DHT22;15225;50.730;4.244;2022-12-18T18:29:13;3.50;99.90
27870;DHT22;15225;50.730;4.244;2022-12-18T18:31:39;3.60;99.90
27870;DHT22;15225;50.730;4.244;2022-12-18T18:34:04;3.70;54.60
27870;DHT22;15225;50.730;4.244;2022-12-18T18:36:30;3.80;1.00
27870;DHT22;15225;50.730;4.244;2022-12-18T18:38:58;3.90;1.00
27870;DHT22;15225;50.730;4.244;2022-12-18T18:41:27;3.90;99.90
27870;DHT22;15225;50.730;4.244;2022-12-18T18:43:55;3.90;99.90
27870;DHT22;15225;50.730;4.244;2022-12-18T18:46:22;3.80;44.00
27870;DHT22;15225;50.730;4.244;2022-12-18T18:48:47;3.90;1.00
27870;DHT22;15225;50.730;4.244;2022-12-18T18:51:15;3.80;80.80
27870;DHT22;15225;50.730;4.244;2022-12-18T18:53:46;3.80;99.90
27870;DHT22;15225;50.730;4.244;2022-12-18T18:56:14;3.60;1.00
27870;DHT22;15225;50.730;4.244;2022-12-18T18:58:42;3.60;1.00
27870;DHT22;15225;50.730;4.244;2022-12-18T19:01:15;3.50;99.90
27870;DHT22;15225;50.730;4.244;2022-12-18T19:03:41;3.40;99.90
27870;DHT22;15225;50.730;4.244;2022-12-18T19:06:10;3.50;99.90
27870;DHT22;15225;50.730;4.244;2022-12-18T19:08:38;3.40;99.90
27870;DHT22;15225;50.730;4.244;2022-12-18T19:11:08;3.50;99.90
27870;DHT22;15225;50.730;4.244;2022-12-18T19:14:13;3.40;99.90
27870;DHT22;15225;50.730;4.244;2022-12-18T19:16:40;3.30;99.90
27870;DHT22;15225;50.730;4.244;2022-12-18T19:19:07;3.30;99.90
27870;DHT22;15225;50.730;4.244;2022-12-18T19:21:33;3.40;99.90
27870;DHT22;15225;50.730;4.244;2022-12-18T19:23:59;3.10;99.90
27870;DHT22;15225;50.730;4.244;2022-12-18T19:26:26;3.10;99.90
27870;DHT22;15225;50.730;4.244;2022-12-18T19:28:52;3.30;99.90
27870;DHT22;15225;50.730;4.244;2022-12-18T19:31:18;3.50;99.90
27870;DHT22;15225;50.730;4.244;2022-12-18T19:33:46;3.40;99.90
27870;DHT22;15225;50.730;4.244;2022-12-18T19:36:21;3.30;99.90
27870;DHT22;15225;50.730;4.244;2022-12-18T19:38:48;3.40;99.90
27870;DHT22;15225;50.730;4.244;2022-12-18T19:41:15;3.40;99.90
27870;DHT22;15225;50.730;4.244;2022-12-18T19:43:42;3.50;99.90
27870;DHT22;15225;50.730;4.244;2022-12-18T19:46:11;3.50;99.90
27870;DHT22;15225;50.730;4.244;2022-12-18T19:48:37;3.50;99.90
27870;DHT22;15225;50.730;4.244;2022-12-18T19:51:16;3.60;99.90
27870;DHT22;15225;50.730;4.244;2022-12-18T19:53:43;3.50;99.90
27870;DHT22;15225;50.730;4.244;2022-12-18T19:56:11;3.50;1.00
27870;DHT22;15225;50.730;4.244;2022-12-18T19:58:37;3.70;1.00
27870;DHT22;15225;50.730;4.244;2022-12-18T20:01:04;3.70;1.00
27870;DHT22;15225;50.730;4.244;2022-12-18T20:03:29;3.90;99.90
27870;DHT22;15225;50.730;4.244;2022-12-18T20:05:55;3.80;99.90
27870;DHT22;15225;50.730;4.244;2022-12-18T20:08:34;3.90;99.90
27870;DHT22;15225;50.730;4.244;2022-12-18T20:11:00;3.80;1.00
27870;DHT22;15225;50.730;4.244;2022-12-18T20:13:25;3.70;1.00
27870;DHT22;15225;50.730;4.244;2022-12-18T20:15:51;3.60;1.00
27870;DHT22;15225;50.730;4.244;2022-12-18T20:18:17;3.50;1.00
27870;DHT22;15225;50.730;4.244;2022-12-18T20:20:42;3.40;1.00
27870;DHT22;15225;50.730;4.244;2022-12-18T20:23:08;3.50;1.00
27870;DHT22;15225;50.730;4.244;2022-12-18T20:25:34;3.40;1.00
27870;DHT22;15225;50.730;4.244;2022-12-18T20:28:00;3.40;1.00
27870;DHT22;15225;50.730;4.244;2022-12-18T20:30:26;3.30;1.00
27870;DHT22;15225;50.730;4.244;2022-12-18T20:32:51;3.30;1.00
27870;DHT22;15225;50.730;4.244;2022-12-18T20:35:17;3.30;1.00
27870;DHT22;15225;50.730;4.244;2022-12-18T20:37:43;3.30;1.00
27870;DHT22;15225;50.730;4.244;2022-12-18T20:40:09;3.40;1.00
27870;DHT22;15225;50.730;4.244;2022-12-18T20:42:35;3.50;1.00
27870;DHT22;15225;50.730;4.244;2022-12-18T20:45:01;3.60;1.00
27870;DHT22;15225;50.730;4.244;2022-12-18T20:47:27;3.80;1.00
27870;DHT22;15225;50.730;4.244;2022-12-18T20:49:52;3.60;1.00
27870;DHT22;15225;50.730;4.244;2022-12-18T20:52:18;3.60;1.00
27870;DHT22;15225;50.730;4.244;2022-12-18T20:54:44;3.50;1.00
27870;DHT22;15225;50.730;4.244;2022-12-18T20:57:09;3.80;1.00
